Time;durP1;ratioP1;P1;durP2;ratioP2;P2;SDS_P1;SDS_P2;PMS_P1;PMS_P2;Temp;Humidity;BMP_temperature;BMP_pressure;BME280_temperature;BME280_humidity;BME280_pressure;Samples;Min_cycle;Max_cycle;Signal;HPM_P1;HPM_P2
2022/11/04 00:01:43;;;;;;;;;1.00;1.00;;;;;11.74;68.50;99700.06;4972961;28;46627;-54
2022/11/04 00:04:08;;;;;;;;;5.00;3.20;;;;;12.01;68.44;99732.47;4982713;28;45391;-54
2022/11/04 00:06:34;;;;;;;;;2.50;2.50;;;;;12.00;68.75;99730.81;5015886;28;45787;-55
2022/11/04 00:09:00;;;;;;;;;1.25;1.00;;;;;12.00;68.32;99730.81;5016288;28;45600;-54
2022/11/04 00:14:10;;;;;;;;;3.00;2.00;;;;;11.98;68.69;99718.38;5016007;28;45386;-52
2022/11/04 00:19:19;;;;;;;;;2.00;1.00;;;;;12.02;68.66;99709.38;5016024;28;45317;-52
2022/11/04 00:29:38;;;;;;;;;0.20;0.20;;;;;11.70;69.23;99659.59;5035899;28;45357;-51
2022/11/04 00:34:48;;;;;;;;;1.60;1.60;;;;;11.96;69.27;99702.16;5035486;28;45449;-50
2022/11/04 00:37:13;;;;;;;;;3.25;2.00;;;;;11.89;69.56;99685.78;5035973;28;45259;-54
2022/11/04 00:39:39;;;;;;;;;3.50;2.00;;;;;11.35;69.27;99599.06;5035685;28;45837;-54
2022/11/04 00:42:04;;;;;;;;;3.25;1.75;;;;;11.97;69.14;99698.31;5034158;28;46381;-53
2022/11/04 00:44:30;;;;;;;;;1.50;1.25;;;;;11.99;69.74;99696.16;5035476;28;45331;-55
2022/11/04 00:46:55;;;;;;;;;4.00;1.00;;;;;11.98;69.69;99690.88;5035199;28;45520;-51
2022/11/04 00:49:21;;;;;;;;;1.75;1.75;;;;;11.76;69.41;99662.22;5035796;28;45475;-55
2022/11/04 00:51:46;;;;;;;;;1.50;0.75;;;;;12.03;69.24;99702.00;5035271;28;46292;-55
2022/11/04 00:54:13;;;;;;;;;4.25;2.00;;;;;11.95;69.58;99697.72;5034005;28;45534;-52
2022/11/04 00:56:39;;;;;;;;;2.40;1.80;;;;;11.99;69.46;99700.81;5035441;28;45367;-53
2022/11/04 00:59:04;;;;;;;;;1.50;1.25;;;;;12.01;69.30;99702.22;5017465;28;45386;-54
2022/11/04 01:01:30;;;;;;;;;3.25;2.25;;;;;11.95;69.22;99677.66;5035483;28;46140;-53
2022/11/04 01:03:55;;;;;;;;;2.25;1.00;;;;;11.83;69.49;99655.69;5035008;28;45244;-54
2022/11/04 01:06:22;;;;;;;;;3.00;2.00;;;;;11.98;69.68;99685.38;5035078;28;45223;-53
2022/11/04 01:08:47;;;;;;;;;2.40;1.00;;;;;12.01;69.56;99682.16;5035363;28;45451;-55
2022/11/04 01:11:14;;;;;;;;;4.00;1.00;;;;;12.01;69.50;99666.47;5034929;28;46160;-55
2022/11/04 01:13:39;;;;;;;;;1.60;1.00;;;;;12.01;69.88;99674.72;5013834;28;45376;-55
2022/11/04 01:16:07;;;;;;;;;2.00;1.00;;;;;12.00;69.53;99673.06;5012233;28;45174;-52
2022/11/04 01:18:32;;;;;;;;;3.60;2.00;;;;;11.87;70.02;99638.47;5012913;28;45506;-56
2022/11/04 01:21:02;;;;;;;;;1.25;1.25;;;;;12.06;69.98;99669.34;5010246;28;47380;-54
2022/11/04 01:23:28;;;;;;;;;2.00;1.40;;;;;12.09;69.74;99678.19;5011821;28;45222;-53
2022/11/04 01:25:53;;;;;;;;;2.00;2.00;;;;;12.07;70.14;99664.69;5010945;28;45813;-53
2022/11/04 01:28:19;;;;;;;;;1.00;1.00;;;;;11.79;70.46;99617.72;5025593;28;45479;-53
2022/11/04 01:30:44;;;;;;;;;1.00;0.00;;;;;12.02;69.86;99673.63;5033349;28;46073;-55
2022/11/04 01:33:10;;;;;;;;;1.50;1.50;;;;;11.98;70.13;99672.50;5034929;28;45346;-53
2022/11/04 01:35:35;;;;;;;;;2.00;0.00;;;;;11.99;70.27;99667.81;5034777;28;45267;-54
2022/11/04 01:38:01;;;;;;;;;1.25;0.50;;;;;11.86;70.26;99649.72;5034966;28;45345;-51
2022/11/04 01:40:26;;;;;;;;;3.25;2.00;;;;;11.94;70.68;99660.31;5034212;28;45811;-53
2022/11/04 01:42:52;;;;;;;;;2.75;2.00;;;;;11.95;70.27;99656.47;5034520;28;45518;-54
2022/11/04 01:45:18;;;;;;;;;4.00;2.25;;;;;11.86;69.99;99630.47;5034389;28;45391;-55
2022/11/04 01:47:49;;;;;;;;;3.20;3.00;;;;;11.95;70.48;99655.66;5034305;28;45356;-54
2022/11/04 01:50:18;;;;;;;;;3.60;3.60;;;;;11.92;69.99;99671.53;5016585;28;45504;-50
2022/11/04 01:52:50;;;;;;;;;4.20;3.80;;;;;11.90;70.32;99659.97;5034458;28;45457;-54
2022/11/04 01:55:19;;;;;;;;;9.20;7.80;;;;;11.98;70.02;99660.63;5033985;28;45388;-52
2022/11/04 01:57:46;;;;;;;;;1.00;1.00;;;;;11.93;69.70;99637.50;5033517;28;45321;-51
2022/11/04 02:00:12;;;;;;;;;1.80;1.00;;;;;11.98;69.79;99646.88;5032607;28;46051;-53
2022/11/04 02:02:59;;;;;;;;;1.00;1.00;;;;;11.89;69.49;99619.81;5034171;28;45262;-54
2022/11/04 02:05:26;;;;;;;;;2.00;0.20;;;;;11.93;69.39;99632.00;5032691;28;45525;-54
2022/11/04 02:07:53;;;;;;;;;4.00;2.60;;;;;11.95;69.38;99617.16;5034152;28;45348;-51
2022/11/04 02:10:20;;;;;;;;;2.00;1.00;;;;;11.91;69.43;99630.56;5016011;28;46078;-50
2022/11/04 02:12:48;;;;;;;;;0.80;0.80;;;;;11.91;69.78;99642.38;5015953;28;45385;-54
2022/11/04 02:15:14;;;;;;;;;2.40;2.40;;;;;11.68;69.33;99598.53;5033053;28;45454;-53
2022/11/04 02:17:57;;;;;;;;;2.40;1.00;;;;;11.93;69.47;99632.00;5032733;28;45477;-54
2022/11/04 02:20:34;;;;;;;;;0.20;0.20;;;;;11.89;69.58;99611.56;5032594;28;45391;-51
2022/11/04 02:23:25;;;;;;;;;1.00;1.00;;;;;11.93;69.46;99606.41;5032605;28;45339;-56
2022/11/04 02:26:19;;;;;;;;;1.40;1.40;;;;;11.91;69.39;99614.88;5033952;28;45433;-55
2022/11/04 02:29:25;;;;;;;;;1.80;0.00;;;;;11.90;69.53;99617.91;5020116;28;45417;-52
2022/11/04 02:32:11;;;;;;;;;1.80;1.00;;;;;11.85;69.73;99613.13;4991821;28;46088;-52
2022/11/04 02:34:49;;;;;;;;;4.80;2.00;;;;;11.89;69.52;99629.97;4998989;28;45379;-51
2022/11/04 02:37:19;;;;;;;;;1.40;1.40;;;;;11.70;70.03;99602.72;5017248;28;45258;-55
2022/11/04 02:40:00;;;;;;;;;1.80;0.00;;;;;11.82;69.30;99623.78;5016039;28;45566;-53
2022/11/04 02:42:38;;;;;;;;;2.00;1.60;;;;;11.87;69.67;99632.13;4987425;28;46977;-51
2022/11/04 02:45:16;;;;;;;;;1.00;1.00;;;;;11.88;69.38;99631.03;5013052;28;45298;-52
2022/11/04 02:47:44;;;;;;;;;0.40;0.00;;;;;11.92;69.57;99635.78;4999759;28;45873;-52
2022/11/04 02:50:25;;;;;;;;;1.80;0.60;;;;;11.91;69.42;99631.38;5015907;28;45367;-51
2022/11/04 02:53:09;;;;;;;;;2.00;0.80;;;;;11.90;69.76;99626.16;5016858;28;45505;-51
2022/11/04 02:55:44;;;;;;;;;0.00;0.00;;;;;11.92;69.49;99611.06;4999505;28;45518;-52
2022/11/04 02:58:22;;;;;;;;;1.60;1.00;;;;;11.69;69.57;99558.97;4999053;28;45354;-55
2022/11/04 03:00:48;;;;;;;;;1.40;1.40;;;;;11.92;69.54;99608.31;4999112;28;45395;-53
2022/11/04 03:03:16;;;;;;;;;4.50;1.50;;;;;11.63;69.74;99552.56;5016804;28;45661;-56
2022/11/04 03:05:43;;;;;;;;;4.20;1.80;;;;;11.97;69.64;99601.22;5015218;28;45422;-54
2022/11/04 03:08:33;;;;;;;;;0.40;0.40;;;;;11.91;69.81;99597.56;5015642;28;45429;-53
2022/11/04 03:11:05;;;;;;;;;5.00;1.20;;;;;11.96;69.87;99596.81;5015212;28;45687;-51
2022/11/04 03:13:30;;;;;;;;;1.20;0.00;;;;;11.98;69.63;99601.00;4999086;28;46542;-55
2022/11/04 03:15:59;;;;;;;;;0.00;0.00;;;;;11.98;69.65;99597.41;5016600;28;45407;-53
2022/11/04 03:18:41;;;;;;;;;1.60;1.00;;;;;12.02;69.89;99593.88;4999207;28;45298;-53
2022/11/04 03:21:08;;;;;;;;;0.40;0.40;;;;;11.96;69.47;99575.66;5015024;28;45355;-51
2022/11/04 03:23:33;;;;;;;;;2.80;0.00;;;;;11.90;69.63;99557.41;5015536;28;46181;-52
2022/11/04 03:26:17;;;;;;;;;2.00;1.00;;;;;11.99;69.55;99564.16;5014706;28;45392;-54
2022/11/04 03:28:51;;;;;;;;;2.00;1.40;;;;;12.01;69.16;99570.22;5010021;28;45459;-52
2022/11/04 03:31:26;;;;;;;;;0.00;0.00;;;;;11.86;69.49;99553.50;5035150;28;45611;-53
2022/11/04 03:33:52;;;;;;;;;2.20;1.00;;;;;12.00;69.46;99571.31;5035207;28;45380;-53
2022/11/04 03:36:18;;;;;;;;;2.20;0.80;;;;;11.85;69.60;99538.91;5034941;28;45473;-55
2022/11/04 03:38:43;;;;;;;;;1.00;1.00;;;;;11.84;69.48;99529.00;5035391;28;45373;-53
2022/11/04 03:41:23;;;;;;;;;1.00;1.00;;;;;11.97;69.06;99557.22;5035976;28;45368;-50
2022/11/04 03:43:49;;;;;;;;;1.80;1.00;;;;;11.96;69.31;99564.66;5018230;28;47238;-50
2022/11/04 03:46:14;;;;;;;;;2.00;0.25;;;;;11.72;69.26;99520.00;5034715;28;45525;-53
2022/11/04 03:48:40;;;;;;;;;1.00;1.00;;;;;11.86;69.34;99546.09;5036145;28;45423;-51
2022/11/04 03:51:07;;;;;;;;;0.20;0.00;;;;;11.90;69.27;99551.91;5034565;28;45414;-53
2022/11/04 03:53:33;;;;;;;;;1.00;1.00;;;;;11.97;69.04;99557.22;5035862;28;46021;-51
2022/11/04 03:56:24;;;;;;;;;1.00;0.25;;;;;11.77;69.31;99523.69;5035617;28;45432;-52
2022/11/04 03:59:03;;;;;;;;;0.80;0.80;;;;;11.98;69.40;99558.91;5035147;28;45395;-53
2022/11/04 04:01:32;;;;;;;;;1.00;0.80;;;;;11.89;69.14;99570.31;5035586;28;45395;-52
2022/11/04 04:04:21;;;;;;;;;0.20;0.20;;;;;11.84;69.81;99561.97;5035499;28;46177;-53
2022/11/04 04:06:47;;;;;;;;;0.40;0.00;;;;;11.82;69.30;99557.81;5033970;28;45781;-53
2022/11/04 04:09:29;;;;;;;;;0.25;0.25;;;;;11.56;69.14;99532.63;5036088;28;45443;-53
2022/11/04 04:12:04;;;;;;;;;0.40;0.00;;;;;11.78;69.51;99573.97;5035972;28;45323;-56
2022/11/04 04:15:00;;;;;;;;;1.60;0.60;;;;;11.91;69.44;99576.38;5034195;28;45521;-52
2022/11/04 04:17:32;;;;;;;;;2.20;0.00;;;;;11.92;68.93;99558.00;5025518;28;45471;-50
2022/11/04 04:19:59;;;;;;;;;1.00;1.00;;;;;11.85;69.17;99554.56;5035472;28;45755;-51
2022/11/04 04:22:30;;;;;;;;;0.00;0.00;;;;;11.90;69.11;99563.72;5017989;28;45584;-52
2022/11/04 04:27:39;;;;;;;;;1.60;0.40;;;;;11.23;69.21;99469.16;5018749;28;45445;-51
2022/11/04 04:30:07;;;;;;;;;1.00;0.00;;;;;11.87;69.05;99568.91;5015853;28;45337;-50
2022/11/04 04:32:36;;;;;;;;;0.00;0.00;;;;;11.90;69.09;99580.22;5014489;28;45409;-49
2022/11/04 04:37:45;;;;;;;;;1.40;1.00;;;;;11.61;69.10;99539.06;5014496;28;45317;-53
2022/11/04 04:45:42;;;;;;;;;0.60;0.60;;;;;11.87;68.88;99583.50;5015106;28;45730;-55
2022/11/04 04:48:09;;;;;;;;;1.00;1.00;;;;;11.78;68.83;99557.47;5013992;28;45372;-51
2022/11/04 04:50:43;;;;;;;;;0.80;0.80;;;;;11.78;68.92;99574.81;4981399;28;45437;-52
2022/11/04 04:53:09;;;;;;;;;4.60;1.00;;;;;11.80;69.14;99580.88;5014695;28;45641;-52
2022/11/04 04:55:35;;;;;;;;;1.00;1.00;;;;;11.82;68.82;99585.31;4997197;28;46132;-51
2022/11/04 04:58:00;;;;;;;;;3.75;0.00;;;;;11.70;69.02;99572.47;5014678;28;45295;-54
2022/11/04 05:00:25;;;;;;;;;1.00;1.00;;;;;11.82;68.57;99585.31;5015197;28;45364;-53
2022/11/04 05:02:51;;;;;;;;;1.00;0.00;;;;;11.83;68.73;99592.47;5015651;28;45433;-54
2022/11/04 05:05:17;;;;;;;;;1.00;0.00;;;;;11.82;68.65;99582.56;5015334;28;46355;-54
2022/11/04 05:07:43;;;;;;;;;0.20;0.20;;;;;11.80;68.43;99569.88;5013556;28;45284;-54
2022/11/04 05:10:10;;;;;;;;;0.25;0.25;;;;;11.85;68.47;99573.81;5014898;28;45433;-51
2022/11/04 05:15:19;;;;;;;;;1.00;1.00;;;;;11.86;68.23;99583.72;5015090;28;45346;-51
2022/11/04 05:17:45;;;;;;;;;0.00;0.00;;;;;11.88;68.42;99589.81;5000591;28;45613;-52
2022/11/04 05:20:11;;;;;;;;;2.50;1.00;;;;;11.87;68.61;99593.63;4983782;28;45402;-54
2022/11/04 05:22:36;;;;;;;;;1.25;0.00;;;;;11.82;68.59;99585.31;4995346;28;45396;-51
2022/11/04 05:25:02;;;;;;;;;0.00;0.00;;;;;11.85;68.24;99591.13;4993332;28;46406;-51
2022/11/04 05:27:27;;;;;;;;;0.25;0.25;;;;;11.41;68.25;99523.03;4994890;28;45382;-54
2022/11/04 05:29:53;;;;;;;;;1.00;1.00;;;;;11.78;68.62;99583.06;5033814;28;45330;-53
2022/11/04 05:32:18;;;;;;;;;0.00;0.00;;;;;11.78;68.58;99596.81;5034839;28;45610;-50
2022/11/04 05:34:44;;;;;;;;;3.00;2.00;;;;;11.80;68.57;99588.31;5034302;28;46317;-54
2022/11/04 05:37:09;;;;;;;;;0.00;0.00;;;;;11.81;68.60;99595.47;5034581;28;45316;-52
2022/11/04 05:39:34;;;;;;;;;1.00;0.00;;;;;11.78;68.55;99590.47;5034812;28;45366;-52
2022/11/04 05:42:00;;;;;;;;;2.00;0.50;;;;;11.79;68.73;99597.63;5034759;28;45369;-53
2022/11/04 05:44:25;;;;;;;;;2.00;0.75;;;;;11.79;68.79;99601.22;5034765;28;45450;-54
2022/11/04 05:46:51;;;;;;;;;0.75;0.75;;;;;11.70;69.13;99580.72;5034990;28;45432;-54
2022/11/04 05:49:16;;;;;;;;;0.00;0.00;;;;;11.79;68.90;99597.63;5034521;28;45399;-53
2022/11/04 05:51:42;;;;;;;;;1.75;0.25;;;;;11.82;68.87;99612.78;5034600;28;45489;-52
2022/11/04 05:54:08;;;;;;;;;2.00;0.00;;;;;11.83;68.52;99617.19;5034193;28;46730;-52
2022/11/04 05:56:33;;;;;;;;;1.25;1.00;;;;;11.84;68.52;99616.97;5034282;28;45422;-55
2022/11/04 05:58:59;;;;;;;;;1.00;1.00;;;;;11.86;68.56;99630.47;5033032;28;45391;-54
2022/11/04 06:01:38;;;;;;;;;1.00;1.00;;;;;11.64;68.41;99590.78;5032932;28;45487;-51
2022/11/04 06:04:04;;;;;;;;;0.00;0.00;;;;;11.82;68.65;99626.53;5034276;28;45670;-55
2022/11/04 06:06:31;;;;;;;;;1.80;0.80;;;;;11.69;68.66;99613.94;5034504;28;45428;-55
2022/11/04 06:08:57;;;;;;;;;1.00;1.00;;;;;11.83;68.37;99639.19;5035427;28;45401;-53
2022/11/04 06:11:22;;;;;;;;;4.00;0.00;;;;;11.66;68.65;99621.63;5038100;28;45375;-54
2022/11/04 06:13:48;;;;;;;;;0.50;0.50;;;;;11.79;68.35;99633.38;5037472;28;45930;-53
2022/11/04 06:16:13;;;;;;;;;2.25;1.00;;;;;11.42;68.34;99587.09;5037751;28;45420;-54
2022/11/04 06:18:39;;;;;;;;;0.50;0.50;;;;;11.79;68.84;99647.09;5015436;28;45625;-51
2022/11/04 06:21:08;;;;;;;;;1.00;1.00;;;;;11.80;68.29;99660.63;5009005;28;45469;-53
2022/11/04 06:23:34;;;;;;;;;0.00;0.00;;;;;11.82;68.47;99652.13;5011371;28;45711;-54
2022/11/04 06:25:59;;;;;;;;;1.25;1.25;;;;;11.14;68.60;99551.13;5015848;28;45629;-52
2022/11/04 06:28:25;;;;;;;;;3.00;0.00;;;;;11.75;68.37;99651.44;5022718;28;45393;-55
2022/11/04 06:30:50;;;;;;;;;0.50;0.50;;;;;11.82;68.48;99654.03;5038161;28;45342;-53
2022/11/04 06:33:16;;;;;;;;;0.00;0.00;;;;;11.84;68.32;99654.63;5037200;28;46812;-53
2022/11/04 06:35:41;;;;;;;;;2.25;1.25;;;;;11.75;68.41;99637.69;5036127;28;45436;-55
2022/11/04 06:38:07;;;;;;;;;2.00;2.00;;;;;11.84;68.06;99654.63;5036058;28;45402;-54
2022/11/04 06:40:32;;;;;;;;;1.00;1.00;;;;;11.85;68.27;99656.31;5037781;28;45361;-52
2022/11/04 06:42:58;;;;;;;;;1.50;0.00;;;;;11.86;68.02;99652.47;5037193;28;46140;-50
2022/11/04 06:45:23;;;;;;;;;0.75;0.50;;;;;11.86;68.09;99652.47;5037030;28;45411;-54
2022/11/04 06:47:49;;;;;;;;;0.00;0.00;;;;;11.85;68.06;99651.63;5036412;28;45412;-55
2022/11/04 06:50:14;;;;;;;;;1.25;1.25;;;;;11.83;68.17;99656.53;5037620;28;45241;-55
2022/11/04 06:52:40;;;;;;;;;1.75;0.75;;;;;11.83;68.53;99655.69;5037274;28;46174;-55
2022/11/04 06:55:06;;;;;;;;;1.50;1.50;;;;;11.78;68.59;99660.03;5037674;28;46014;-55
2022/11/04 06:57:32;;;;;;;;;1.00;1.00;;;;;11.79;68.53;99663.59;5037315;28;45516;-54
2022/11/04 06:59:57;;;;;;;;;3.00;0.50;;;;;11.77;68.96;99669.38;5036214;28;45415;-51
2022/11/04 07:02:23;;;;;;;;;1.00;1.00;;;;;11.79;68.52;99669.94;5036653;28;45958;-55
2022/11/04 07:04:48;;;;;;;;;1.75;1.25;;;;;11.79;68.57;99680.94;5037127;28;45320;-54
2022/11/04 07:07:14;;;;;;;;;1.00;1.00;;;;;10.93;68.66;99547.97;5035803;28;45390;-50
2022/11/04 07:09:39;;;;;;;;;2.00;0.75;;;;;11.77;69.04;99676.75;5036779;28;45506;-52
2022/11/04 07:12:06;;;;;;;;;2.50;1.00;;;;;11.59;68.90;99650.31;5036681;28;45403;-53
2022/11/04 07:14:31;;;;;;;;;2.20;1.40;;;;;11.83;68.60;99685.94;5036441;28;45259;-54
2022/11/04 07:16:57;;;;;;;;;2.00;1.00;;;;;11.85;68.30;99687.34;5035577;28;45313;-54
2022/11/04 07:19:22;;;;;;;;;2.00;1.00;;;;;11.78;68.26;99676.53;5036594;28;45905;-55
2022/11/04 07:21:48;;;;;;;;;1.50;1.50;;;;;11.87;68.36;99701.72;5036444;28;45459;-54
2022/11/04 07:24:13;;;;;;;;;3.75;1.25;;;;;11.50;68.08;99633.38;5036939;28;45387;-52
2022/11/04 07:26:41;;;;;;;;;1.00;1.00;;;;;11.92;68.22;99706.47;5034941;28;45482;-54
2022/11/04 07:29:07;;;;;;;;;1.20;0.40;;;;;11.75;67.83;99673.44;5037120;28;45357;-53
2022/11/04 07:31:32;;;;;;;;;0.00;0.00;;;;;11.97;67.75;99713.97;5036563;28;46024;-55
2022/11/04 07:33:58;;;;;;;;;3.00;0.25;;;;;12.00;67.57;99719.00;5036557;28;45299;-54
2022/11/04 07:36:23;;;;;;;;;3.00;1.00;;;;;12.02;67.59;99722.31;5036740;28;45473;-52
2022/11/04 07:38:49;;;;;;;;;1.00;1.00;;;;;12.01;67.69;99726.97;5018831;28;45456;-58
2022/11/04 07:41:15;;;;;;;;;1.75;1.75;;;;;12.02;67.63;99727.81;5036601;28;45367;-54
2022/11/04 07:43:41;;;;;;;;;0.60;0.60;;;;;12.03;67.67;99737.75;5036359;28;45292;-53
2022/11/04 07:46:08;;;;;;;;;2.75;1.00;;;;;12.06;67.66;99745.50;5036220;28;45411;-54
2022/11/04 07:48:35;;;;;;;;;1.00;1.00;;;;;12.00;67.16;99741.81;5036544;28;45417;-52
2022/11/04 07:51:01;;;;;;;;;1.40;1.40;;;;;12.05;67.34;99749.34;5035072;28;45761;-51
2022/11/04 07:53:27;;;;;;;;;1.00;1.00;;;;;11.83;66.97;99721.66;5036020;28;45537;-55
2022/11/04 07:55:53;;;;;;;;;2.40;1.00;;;;;12.03;66.73;99759.75;5034822;28;45439;-53
2022/11/04 07:58:19;;;;;;;;;2.00;2.00;;;;;11.68;67.00;99723.03;5037042;28;45376;-57
2022/11/04 08:00:44;;;;;;;;;1.20;1.20;;;;;11.79;67.79;99773.56;5036194;28;48259;-54
2022/11/04 08:03:10;;;;;;;;;1.50;0.75;;;;;11.80;67.83;99761.50;5037027;28;45497;-53
2022/11/04 08:05:35;;;;;;;;;2.00;2.00;;;;;11.93;67.51;99768.63;5036639;28;45192;-51
2022/11/04 08:08:01;;;;;;;;;1.00;1.00;;;;;12.03;67.13;99779.88;5036036;28;45549;-51
2022/11/04 08:10:27;;;;;;;;;0.00;0.00;;;;;12.15;66.94;99778.97;5034743;28;46851;-57
2022/11/04 08:12:53;;;;;;;;;0.80;0.80;;;;;12.24;66.63;99787.66;5035959;28;45407;-56
2022/11/04 08:15:18;;;;;;;;;2.25;1.00;;;;;12.32;66.85;99790.84;5036286;28;45372;-55
2022/11/04 08:17:44;;;;;;;;;1.50;1.50;;;;;12.31;66.13;99789.19;5036123;28;45488;-53
2022/11/04 08:20:10;;;;;;;;;2.50;1.00;;;;;12.36;65.78;99801.34;5020240;28;45989;-54
2022/11/04 08:22:36;;;;;;;;;9.80;3.20;;;;;12.37;65.97;99794.78;5035695;28;45481;-54
2022/11/04 08:25:01;;;;;;;;;4.00;3.00;;;;;11.64;65.55;99664.16;5035659;28;45384;-56
2022/11/04 08:27:27;;;;;;;;;5.00;5.00;;;;;12.52;65.44;99803.31;5035471;28;45354;-56
2022/11/04 08:29:52;;;;;;;;;3.75;3.75;;;;;12.56;65.20;99804.50;5018740;28;46059;-56
2022/11/04 08:32:18;;;;;;;;;2.00;2.00;;;;;12.58;65.07;99802.31;5013370;28;45289;-55
2022/11/04 08:34:44;;;;;;;;;1.00;1.00;;;;;12.64;65.33;99807.94;5015776;28;45246;-53
2022/11/04 08:37:13;;;;;;;;;5.00;2.00;;;;;12.67;64.85;99815.66;5015676;28;45239;-54
2022/11/04 08:39:39;;;;;;;;;2.40;2.40;;;;;12.67;64.54;99812.91;5013970;28;48699;-56
2022/11/04 08:42:05;;;;;;;;;1.75;1.25;;;;;12.57;64.41;99806.16;5014903;28;45444;-54
2022/11/04 08:44:32;;;;;;;;;3.00;2.00;;;;;12.52;64.17;99825.34;5015297;28;45487;-54
2022/11/04 08:46:57;;;;;;;;;0.00;0.00;;;;;12.53;64.45;99832.50;5015317;28;45408;-53
2022/11/04 08:49:23;;;;;;;;;0.75;0.75;;;;;12.52;64.28;99839.09;5014933;28;46388;-53
2022/11/04 08:51:55;;;;;;;;;0.00;0.00;;;;;12.25;63.39;99809.44;5015533;28;45361;-54
2022/11/04 08:54:20;;;;;;;;;0.60;0.60;;;;;12.50;64.02;99844.03;5015093;28;45449;-51
2022/11/04 08:56:46;;;;;;;;;0.00;0.00;;;;;12.55;62.59;99854.28;5015370;28;45724;-55
2022/11/04 08:59:11;;;;;;;;;2.25;0.50;;;;;12.43;62.66;99859.84;5013641;28;48084;-58
2022/11/04 09:01:37;;;;;;;;;2.25;0.00;;;;;12.33;62.51;99860.50;5015174;28;45565;-55
2022/11/04 09:04:03;;;;;;;;;0.00;0.00;;;;;12.37;63.57;99869.09;5013407;28;45323;-52
2022/11/04 09:06:33;;;;;;;;;0.00;0.00;;;;;12.47;62.72;99874.78;5013984;28;45450;-53
2022/11/04 09:09:02;;;;;;;;;1.80;1.00;;;;;12.47;62.31;99872.03;5013282;28;46076;-53
2022/11/04 09:11:28;;;;;;;;;1.00;1.00;;;;;12.42;63.20;99870.00;5015092;28;45417;-52
2022/11/04 09:13:54;;;;;;;;;0.75;0.75;;;;;12.50;62.99;99881.69;5014945;28;45355;-52
2022/11/04 09:16:19;;;;;;;;;2.80;0.40;;;;;12.58;63.24;99884.91;5015255;28;45349;-52
2022/11/04 09:18:45;;;;;;;;;0.50;0.50;;;;;12.57;63.02;99879.63;5014757;28;45990;-51
2022/11/04 09:21:10;;;;;;;;;0.50;0.50;;;;;12.33;62.83;99844.78;4999730;28;45456;-54
2022/11/04 09:23:36;;;;;;;;;1.50;1.00;;;;;12.53;63.06;99895.81;5010869;28;45895;-51
2022/11/04 09:26:07;;;;;;;;;1.50;0.00;;;;;12.45;63.25;99886.00;4989519;28;45492;-54
2022/11/04 09:28:33;;;;;;;;;2.00;0.00;;;;;12.47;63.61;99883.88;5002804;28;46221;-55
2022/11/04 09:30:58;;;;;;;;;1.00;0.25;;;;;12.31;63.99;99866.22;5016995;28;45639;-54
2022/11/04 09:33:24;;;;;;;;;0.25;0.00;;;;;12.57;63.45;99897.00;5034969;28;45301;-54
2022/11/04 09:35:56;;;;;;;;;3.00;1.00;;;;;12.67;63.74;99912.03;5035476;28;45350;-53
2022/11/04 09:38:22;;;;;;;;;3.60;1.00;;;;;12.44;63.74;99873.34;5033136;28;45689;-55
2022/11/04 09:40:49;;;;;;;;;1.00;1.00;;;;;12.21;63.54;99841.25;5033661;28;45385;-52
2022/11/04 09:43:39;;;;;;;;;1.00;1.00;;;;;12.66;63.88;99918.63;5036427;28;45303;-50
2022/11/04 09:46:07;;;;;;;;;0.40;0.20;;;;;12.64;63.48;99927.13;5038429;28;45341;-52
2022/11/04 09:48:50;;;;;;;;;0.00;0.00;;;;;12.71;63.94;99932.50;5020080;28;45907;-51
2022/11/04 09:51:16;;;;;;;;;2.60;1.00;;;;;12.73;63.98;99944.94;5038094;28;45450;-49
2022/11/04 09:53:50;;;;;;;;;1.00;1.00;;;;;12.66;64.62;99958.00;4984956;28;45454;-55
2022/11/04 09:56:23;;;;;;;;;0.00;0.00;;;;;12.55;63.90;99942.34;5024453;28;45462;-52
2022/11/04 09:58:49;;;;;;;;;4.40;2.40;;;;;12.53;63.71;99952.78;5015360;28;46124;-54
2022/11/04 10:01:18;;;;;;;;;1.50;1.50;;;;;12.31;63.68;99936.91;5017039;28;45820;-54
2022/11/04 10:03:55;;;;;;;;;1.20;0.40;;;;;12.51;64.15;99965.94;5017118;28;45357;-55
2022/11/04 10:06:39;;;;;;;;;1.40;1.40;;;;;12.50;64.15;99969.78;5017375;28;45377;-55
2022/11/04 10:09:20;;;;;;;;;0.00;0.00;;;;;12.27;64.36;99946.75;5017022;28;45732;-55
2022/11/04 10:12:15;;;;;;;;;2.00;0.80;;;;;12.18;64.40;99946.28;5015265;28;45438;-54
2022/11/04 10:15:22;;;;;;;;;1.40;0.20;;;;;12.45;63.83;99990.59;5015524;28;45857;-52
2022/11/04 10:18:06;;;;;;;;;0.60;0.40;;;;;12.44;63.58;99996.38;4974908;28;45731;-50
2022/11/04 10:20:41;;;;;;;;;1.60;1.00;;;;;12.37;63.41;100007.50;5026491;28;45552;-53
2022/11/04 10:23:55;;;;;;;;;0.40;0.40;;;;;12.38;63.66;100014.66;4983760;28;45539;-51
2022/11/04 10:26:26;;;;;;;;;2.60;1.20;;;;;12.40;62.95;100014.44;4934308;28;45512;-50
2022/11/04 10:28:56;;;;;;;;;1.00;1.00;;;;;12.57;62.83;99982.31;4998558;28;45327;-51
2022/11/04 10:31:21;;;;;;;;;2.00;2.00;;;;;17.32;53.18;100033.22;5018360;28;46868;-55
2022/11/04 10:33:55;;;;;;;;;0.00;0.00;;;;;17.40;49.26;100017.16;5034672;28;45430;-55
2022/11/04 10:36:20;;;;;;;;;0.60;0.60;;;;;17.41;49.65;100041.00;5018626;28;45463;-54
2022/11/04 10:38:49;;;;;;;;;0.25;0.25;;;;;16.36;50.65;100050.00;5017986;28;45677;-58
2022/11/04 10:41:25;;;;;;;;;0.00;0.00;;;;;15.16;53.95;100051.75;5035042;28;45797;-56
2022/11/04 10:44:18;;;;;;;;;5.00;2.40;;;;;14.56;55.90;100065.34;5036768;28;45371;-53
2022/11/04 10:47:05;;;;;;;;;2.80;1.00;;;;;14.16;57.46;100066.44;5029392;28;45470;-52
2022/11/04 10:50:08;;;;;;;;;0.80;0.20;;;;;13.91;57.09;100076.81;5037502;28;45416;-58
2022/11/04 10:52:34;;;;;;;;;0.40;0.40;;;;;13.47;57.75;100011.28;5037177;28;45368;-56
2022/11/04 10:54:59;;;;;;;;;3.00;1.00;;;;;15.30;55.69;100045.81;5034778;28;45266;-55
2022/11/04 10:57:25;;;;;;;;;1.50;1.50;;;;;18.69;48.55;100074.53;5037243;28;45246;-56
2022/11/04 10:59:58;;;;;;;;;1.00;1.00;;;;;19.39;45.43;100070.03;5037000;28;45641;-57
2022/11/04 11:02:36;;;;;;;;;3.00;2.00;;;;;21.59;42.80;100075.81;5036689;28;46108;-56
2022/11/04 11:05:17;;;;;;;;;1.80;1.80;;;;;20.40;42.55;100076.22;5036494;28;45316;-56
2022/11/04 11:07:43;;;;;;;;;1.00;1.00;;;;;18.91;44.58;100049.13;5036909;28;45219;-59
2022/11/04 11:10:22;;;;;;;;;4.40;2.60;;;;;18.00;47.12;100086.81;5029114;28;45474;-56
2022/11/04 11:13:00;;;;;;;;;1.60;1.00;;;;;17.69;47.36;100097.06;4999505;28;46682;-59
2022/11/04 11:15:29;;;;;;;;;2.60;1.40;;;;;16.99;48.94;100095.47;5015163;28;45457;-56
2022/11/04 11:18:15;;;;;;;;;3.00;1.20;;;;;17.87;48.99;100095.69;5016646;28;45671;-58
2022/11/04 11:20:42;;;;;;;;;0.00;0.00;;;;;19.99;42.88;100094.13;5017078;28;45347;-56
2022/11/04 11:23:46;;;;;;;;;1.80;1.00;;;;;18.52;45.10;100095.13;5015193;28;46835;-55
2022/11/04 11:26:19;;;;;;;;;1.00;1.00;;;;;17.67;47.13;100108.44;5012730;28;45428;-57
2022/11/04 11:28:55;;;;;;;;;2.60;1.00;;;;;17.32;47.62;100083.16;5019282;28;45659;-54
2022/11/04 11:31:25;;;;;;;;;1.20;1.20;;;;;17.18;49.19;100113.31;5035630;28;45402;-56
2022/11/04 11:33:53;;;;;;;;;1.60;1.60;;;;;16.78;49.61;100112.00;5022979;28;46526;-54
2022/11/04 11:36:35;;;;;;;;;1.20;1.20;;;;;17.15;48.20;100082.53;5015131;28;45341;-53
2022/11/04 11:39:10;;;;;;;;;3.00;3.00;;;;;17.16;47.71;100042.59;5015052;28;45479;-55
2022/11/04 11:41:53;;;;;;;;;4.20;2.40;;;;;16.67;49.75;100116.66;5015324;28;45445;-53
2022/11/04 11:44:21;;;;;;;;;3.60;1.40;;;;;15.78;51.97;100062.56;5014900;28;46646;-54
2022/11/04 11:46:54;;;;;;;;;0.20;0.20;;;;;15.73;52.51;100126.16;5014960;28;45403;-54
2022/11/04 11:49:26;;;;;;;;;3.00;3.00;;;;;15.50;53.04;100138.38;5014927;28;45432;-56
2022/11/04 11:51:51;;;;;;;;;1.80;1.20;;;;;14.60;53.65;100061.00;5014097;28;45404;-56
2022/11/04 11:54:28;;;;;;;;;4.00;1.50;;;;;14.99;55.03;100167.06;5014305;28;45360;-56
2022/11/04 11:56:54;;;;;;;;;2.00;1.80;;;;;14.77;55.35;100154.03;4997655;28;45477;-56
2022/11/04 11:59:44;;;;;;;;;2.00;1.20;;;;;14.53;55.76;100142.34;5014785;28;45429;-54
2022/11/04 12:02:35;;;;;;;;;2.80;2.00;;;;;14.54;56.06;100169.72;5013900;28;45361;-50
2022/11/04 12:05:00;;;;;;;;;1.00;1.00;;;;;14.71;55.67;100177.97;5014766;28;45370;-54
2022/11/04 12:07:39;;;;;;;;;2.00;1.00;;;;;14.74;55.25;100154.56;5011902;28;47226;-53
2022/11/04 12:10:34;;;;;;;;;1.20;1.00;;;;;14.63;54.16;100184.75;4987859;28;45355;-53
2022/11/04 12:13:10;;;;;;;;;2.00;1.00;;;;;14.45;55.44;100194.16;5013990;28;45388;-58
2022/11/04 12:15:51;;;;;;;;;3.00;2.00;;;;;16.71;52.42;100206.44;5013958;28;46017;-49